createdAt,value
2022-08-08T00:00:54.006Z,2.30
2022-08-08T00:00:54.153Z,2.60
2022-08-08T00:01:13.727Z,2.70
2022-08-08T00:02:31.564Z,2.50
2022-08-08T00:03:31.401Z,2.50
2022-08-08T00:04:16.208Z,2.50
2022-08-08T00:05:12.930Z,2.50
2022-08-08T00:06:12.805Z,2.20
2022-08-08T00:07:13.094Z,2.30
2022-08-08T00:08:12.778Z,2.40
2022-08-08T00:09:16.145Z,2.30
2022-08-08T00:10:12.742Z,2.30
2022-08-08T00:11:12.931Z,2.60
2022-08-08T00:12:12.785Z,2.40
2022-08-08T00:13:12.790Z,2.40
2022-08-08T00:14:15.310Z,2.20
2022-08-08T00:15:13.184Z,2.30
2022-08-08T00:16:12.690Z,2.30
2022-08-08T00:17:22.907Z,2.50
2022-08-08T00:18:13.599Z,2.30
2022-08-08T00:19:12.797Z,2.20
2022-08-08T00:20:14.807Z,2.20
2022-08-08T00:21:12.667Z,2.20
2022-08-08T00:22:12.696Z,2.50
2022-08-08T00:23:14.885Z,2.30
2022-08-08T00:24:12.660Z,2.30
2022-08-08T00:25:12.623Z,2.20
2022-08-08T00:26:12.901Z,2.20
2022-08-08T00:27:12.639Z,2.20
2022-08-08T00:28:34.533Z,2.30
2022-08-08T00:29:15.065Z,2.30
2022-08-08T00:30:15.696Z,2.30
2022-08-08T00:32:28.158Z,2.50
2022-08-08T00:32:28.532Z,2.30
2022-08-08T00:33:13.502Z,2.30
2022-08-08T00:34:18.469Z,2.50
2022-08-08T00:35:16.696Z,2.20
2022-08-08T00:36:14.938Z,2.60
2022-08-08T00:37:45.216Z,2.40
2022-08-08T00:38:17.025Z,2.60
2022-08-08T00:41:06.042Z,2.50
2022-08-08T00:41:11.468Z,2.50
2022-08-08T00:41:14.673Z,2.50
2022-08-08T00:42:19.636Z,2.60
2022-08-08T00:43:19.556Z,2.50
2022-08-08T00:44:13.391Z,2.50
2022-08-08T00:45:20.815Z,2.70
2022-08-08T00:46:16.431Z,2.50
2022-08-08T00:47:19.495Z,2.80
2022-08-08T00:48:30.092Z,2.90
2022-08-08T00:49:22.022Z,2.90
2022-08-08T00:50:13.368Z,2.70
2022-08-08T00:51:16.073Z,2.40
2022-08-08T00:52:19.552Z,2.60
2022-08-08T00:53:15.835Z,2.40
2022-08-08T00:54:15.308Z,2.40
2022-08-08T00:55:12.352Z,2.20
2022-08-08T00:56:16.343Z,2.30
2022-08-08T00:57:12.752Z,2.50
2022-08-08T00:58:13.831Z,2.70
2022-08-08T00:59:12.460Z,2.40
2022-08-08T01:00:12.377Z,2.50
2022-08-08T01:01:12.482Z,2.60
2022-08-08T01:03:18.172Z,2.70
2022-08-08T01:03:57.547Z,2.40
2022-08-08T01:04:13.948Z,2.50
2022-08-08T01:05:42.262Z,2.60
2022-08-08T01:06:16.221Z,2.40
2022-08-08T01:07:12.355Z,2.40
2022-08-08T01:08:12.351Z,2.50
2022-08-08T01:09:36.179Z,2.50
2022-08-08T01:10:13.262Z,2.70
2022-08-08T01:11:12.270Z,2.50
2022-08-08T01:12:12.318Z,2.80
2022-08-08T01:13:15.038Z,2.60
2022-08-08T01:14:16.166Z,2.70
2022-08-08T01:15:12.221Z,2.80
2022-08-08T01:16:13.165Z,2.60
2022-08-08T01:17:12.228Z,2.70
2022-08-08T01:18:25.142Z,2.70
2022-08-08T01:19:25.268Z,2.50
2022-08-08T01:20:13.448Z,2.60
2022-08-08T01:21:12.232Z,2.60
2022-08-08T01:22:15.738Z,2.80
2022-08-08T01:24:02.488Z,2.70
2022-08-08T01:24:16.474Z,2.70
2022-08-08T01:25:14.415Z,2.90
2022-08-08T01:26:13.198Z,2.80
2022-08-08T01:27:15.945Z,2.70
2022-08-08T01:28:15.729Z,2.80
2022-08-08T01:29:12.209Z,3.10
2022-08-08T01:30:12.184Z,2.90
2022-08-08T01:32:12.739Z,3.40
2022-08-08T01:32:16.003Z,3.00
2022-08-08T01:33:16.297Z,2.70
2022-08-08T01:34:13.151Z,2.90
2022-08-08T01:35:14.177Z,2.90
2022-08-08T01:36:12.185Z,3.00
2022-08-08T01:37:13.852Z,3.30
2022-08-08T01:38:13.101Z,3.00
2022-08-08T01:39:24.131Z,2.80
2022-08-08T01:40:14.761Z,3.10
2022-08-08T01:41:16.053Z,2.80
2022-08-08T01:42:15.041Z,3.20
2022-08-08T01:43:11.995Z,3.00
2022-08-08T01:44:12.075Z,3.00
2022-08-08T01:45:13.978Z,3.40
2022-08-08T01:46:12.049Z,3.50
2022-08-08T01:48:14.137Z,3.50
2022-08-08T01:48:23.260Z,3.50
2022-08-08T01:49:22.677Z,3.60
2022-08-08T01:50:17.118Z,3.00
2022-08-08T01:51:29.811Z,3.60
2022-08-08T01:53:01.104Z,4.20
2022-08-08T01:55:15.673Z,3.50
2022-08-08T01:55:27.142Z,2.80
2022-08-08T01:55:45.243Z,2.90
2022-08-08T01:56:29.674Z,3.40
2022-08-08T01:57:17.283Z,3.20
2022-08-08T01:58:13.828Z,3.40
2022-08-08T01:59:12.937Z,3.40
2022-08-08T02:00:13.051Z,3.20
2022-08-08T02:01:15.966Z,3.80
2022-08-08T02:02:26.663Z,4.30
2022-08-08T02:03:55.829Z,5.00
2022-08-08T02:04:12.863Z,5.10
2022-08-08T02:05:11.849Z,4.80
2022-08-08T02:06:32.418Z,4.20
2022-08-08T02:07:13.666Z,4.40
2022-08-08T02:08:11.830Z,4.50
2022-08-08T02:09:17.578Z,4.00
2022-08-08T02:10:12.784Z,3.60
2022-08-08T02:11:23.438Z,3.80
2022-08-08T02:12:12.828Z,4.20
2022-08-08T02:13:52.686Z,3.90
2022-08-08T02:14:12.767Z,4.00
2022-08-08T02:15:12.498Z,4.20
2022-08-08T02:16:20.833Z,3.90
2022-08-08T02:17:20.273Z,3.60
2022-08-08T02:18:12.758Z,3.50
2022-08-08T02:19:57.607Z,3.60
2022-08-08T02:20:16.186Z,3.50
2022-08-08T02:21:13.305Z,3.30
2022-08-08T02:22:13.318Z,3.50
2022-08-08T02:23:16.202Z,3.40
2022-08-08T02:24:11.723Z,3.60
2022-08-08T02:25:11.954Z,3.50
2022-08-08T02:26:11.682Z,3.40
2022-08-08T02:27:11.814Z,3.60
2022-08-08T02:28:11.780Z,3.80
2022-08-08T02:29:14.810Z,3.30
2022-08-08T02:30:13.058Z,3.70
2022-08-08T02:31:24.604Z,3.20
2022-08-08T02:32:15.732Z,3.70
2022-08-08T02:33:12.670Z,3.40
2022-08-08T02:34:15.085Z,3.30
2022-08-08T02:35:12.616Z,3.20
2022-08-08T02:36:16.324Z,3.40
2022-08-08T02:37:53.020Z,3.00
2022-08-08T02:38:12.797Z,3.40
2022-08-08T02:39:42.789Z,3.10
2022-08-08T02:40:12.745Z,3.20
2022-08-08T02:41:17.918Z,3.20
2022-08-08T02:42:12.587Z,3.20
2022-08-08T02:44:37.995Z,3.10
2022-08-08T02:44:38.062Z,3.00
2022-08-08T02:45:18.779Z,3.40
2022-08-08T02:46:12.652Z,3.00
2022-08-08T02:47:11.615Z,3.20
2022-08-08T02:48:12.653Z,3.20
2022-08-08T02:49:13.492Z,3.00
2022-08-08T02:50:17.898Z,2.60
2022-08-08T02:51:12.504Z,3.10
2022-08-08T02:52:34.888Z,2.80
2022-08-08T02:53:12.556Z,2.90
2022-08-08T02:54:11.520Z,3.00
2022-08-08T02:55:19.719Z,2.90
2022-08-08T02:56:12.505Z,3.00
2022-08-08T02:57:12.128Z,3.10
2022-08-08T02:58:14.944Z,3.20
2022-08-08T02:59:26.106Z,3.10
2022-08-08T03:00:27.073Z,3.10
2022-08-08T03:01:15.020Z,3.20
2022-08-08T03:02:20.209Z,3.30
2022-08-08T03:03:12.450Z,3.40
2022-08-08T03:05:02.419Z,3.30
2022-08-08T03:05:12.497Z,3.10
2022-08-08T03:06:11.531Z,3.20
2022-08-08T03:07:13.365Z,3.30
2022-08-08T03:08:11.522Z,3.10
2022-08-08T03:09:12.184Z,3.20
2022-08-08T03:10:17.643Z,3.10
2022-08-08T03:11:14.002Z,3.10
2022-08-08T03:12:13.895Z,3.00
2022-08-08T03:15:53.969Z,3.20
2022-08-08T03:15:57.619Z,3.30
2022-08-08T03:16:00.415Z,3.50
2022-08-08T03:16:12.435Z,3.50
2022-08-08T03:17:12.526Z,3.30
2022-08-08T03:18:13.610Z,2.90
2022-08-08T03:19:11.377Z,3.10
2022-08-08T03:20:12.402Z,3.30
2022-08-08T03:21:14.775Z,3.20
2022-08-08T03:22:38.484Z,3.50
2022-08-08T03:23:12.317Z,3.40
2022-08-08T03:24:12.317Z,3.20
2022-08-08T03:25:14.594Z,3.40
2022-08-08T03:26:12.354Z,3.40
2022-08-08T03:27:11.367Z,3.40
2022-08-08T03:28:11.347Z,3.40
2022-08-08T03:29:16.814Z,3.40
2022-08-08T03:30:12.349Z,3.30
2022-08-08T03:31:25.163Z,3.20
2022-08-08T03:32:12.284Z,3.10
2022-08-08T03:33:55.282Z,3.20
2022-08-08T03:34:14.281Z,3.10
2022-08-08T03:35:11.333Z,3.20
2022-08-08T03:36:11.343Z,3.10
2022-08-08T03:37:20.109Z,3.30
2022-08-08T03:38:56.152Z,3.40
2022-08-08T03:39:15.641Z,3.60
2022-08-08T03:40:29.857Z,3.30
2022-08-08T03:42:13.060Z,3.50
2022-08-08T03:42:29.893Z,3.60
2022-08-08T03:43:16.361Z,3.60
2022-08-08T03:44:12.374Z,3.50
2022-08-08T03:46:04.825Z,3.50
2022-08-08T03:46:12.215Z,4.20
2022-08-08T03:47:19.544Z,3.70
2022-08-08T03:48:21.287Z,4.00
2022-08-08T03:49:56.882Z,4.20
2022-08-08T03:50:12.138Z,4.40
2022-08-08T03:51:12.125Z,4.00
2022-08-08T03:52:12.965Z,4.10
2022-08-08T03:53:11.113Z,3.70
2022-08-08T03:54:15.367Z,3.90
2022-08-08T03:55:20.091Z,4.00
2022-08-08T03:56:31.941Z,3.90
2022-08-08T03:58:33.576Z,3.70
2022-08-08T03:58:35.069Z,4.00
2022-08-08T03:59:22.807Z,3.90
2022-08-08T04:00:12.179Z,4.00
2022-08-08T04:01:25.991Z,3.70
2022-08-08T04:02:31.501Z,4.50
2022-08-08T04:03:12.271Z,4.30
2022-08-08T04:04:11.201Z,3.90
2022-08-08T04:05:11.032Z,4.30
2022-08-08T04:06:11.080Z,3.80
2022-08-08T04:07:11.222Z,3.90
2022-08-08T04:08:11.994Z,3.80
2022-08-08T04:09:12.020Z,3.60
2022-08-08T04:10:11.075Z,3.90
2022-08-08T04:11:17.765Z,4.20
2022-08-08T04:12:12.003Z,3.80
2022-08-08T04:13:17.180Z,3.90
2022-08-08T04:14:33.788Z,4.10
2022-08-08T04:15:11.966Z,3.80
2022-08-08T04:16:11.040Z,4.50
2022-08-08T04:17:15.671Z,4.00
2022-08-08T04:18:16.499Z,4.50
2022-08-08T04:19:23.027Z,5.00
2022-08-08T04:20:11.914Z,4.20
2022-08-08T04:21:11.001Z,4.00
2022-08-08T04:22:10.980Z,3.70
2022-08-08T04:23:11.016Z,4.40
2022-08-08T04:24:18.982Z,3.90
2022-08-08T04:25:13.107Z,4.10
2022-08-08T04:26:11.002Z,4.80
2022-08-08T04:27:42.829Z,5.10
2022-08-08T04:28:36.881Z,4.50
2022-08-08T04:29:11.826Z,4.70
2022-08-08T04:30:18.303Z,4.70
2022-08-08T04:31:11.943Z,4.40
2022-08-08T04:32:12.029Z,4.70
2022-08-08T04:33:12.401Z,5.00
2022-08-08T04:34:10.980Z,4.90
2022-08-08T04:35:13.285Z,5.10
2022-08-08T04:36:10.927Z,4.70
2022-08-08T04:37:10.896Z,5.20
2022-08-08T04:38:10.894Z,5.70
2022-08-08T04:40:03.844Z,5.70
2022-08-08T04:40:13.050Z,5.40
2022-08-08T04:41:10.938Z,5.50
2022-08-08T04:42:11.858Z,4.90
2022-08-08T04:43:31.282Z,4.80
2022-08-08T04:44:11.804Z,5.40
2022-08-08T04:45:10.750Z,5.50
2022-08-08T04:46:10.740Z,5.20
2022-08-08T04:47:11.889Z,4.50
2022-08-08T04:48:10.699Z,4.80
2022-08-08T04:49:11.455Z,5.20
2022-08-08T04:50:14.347Z,5.30
2022-08-08T04:51:11.689Z,5.00
2022-08-08T04:52:10.702Z,5.10
2022-08-08T04:53:53.094Z,4.90
2022-08-08T04:54:38.757Z,4.80
2022-08-08T04:55:11.703Z,5.00
2022-08-08T04:56:10.738Z,4.80
2022-08-08T04:57:10.765Z,4.70
2022-08-08T04:58:11.199Z,4.10
2022-08-08T04:59:11.857Z,4.60
2022-08-08T05:00:10.751Z,4.10
2022-08-08T05:01:11.456Z,4.50
2022-08-08T05:02:13.582Z,3.90
2022-08-08T05:03:12.638Z,3.80
2022-08-08T05:04:12.808Z,4.20
2022-08-08T05:05:16.235Z,4.60
2022-08-08T05:06:25.257Z,4.40
2022-08-08T05:07:11.617Z,4.60
2022-08-08T05:08:12.640Z,4.60
2022-08-08T05:09:10.659Z,4.20
2022-08-08T05:10:12.898Z,4.50
2022-08-08T05:11:10.674Z,4.00
2022-08-08T05:12:20.840Z,4.40
2022-08-08T05:13:17.453Z,4.40
2022-08-08T05:14:12.187Z,4.10
2022-08-08T05:15:13.657Z,4.30
2022-08-08T05:16:53.747Z,4.60
2022-08-08T05:17:11.543Z,4.20
2022-08-08T05:18:10.704Z,4.20
2022-08-08T05:20:12.406Z,4.20
2022-08-08T05:20:15.113Z,3.70
2022-08-08T05:21:11.632Z,3.80
2022-08-08T05:22:10.610Z,4.10
2022-08-08T05:23:10.598Z,3.90
2022-08-08T05:24:10.717Z,4.00
2022-08-08T05:25:10.571Z,3.70
2022-08-08T05:26:10.575Z,3.90
2022-08-08T05:27:10.534Z,4.00
2022-08-08T05:28:10.516Z,4.00
2022-08-08T05:29:10.566Z,3.90
2022-08-08T05:30:10.503Z,3.80
2022-08-08T05:31:30.759Z,3.70
2022-08-08T05:32:12.641Z,3.60
2022-08-08T05:33:10.508Z,3.60
2022-08-08T05:34:12.967Z,3.70
2022-08-08T05:35:13.418Z,3.90
2022-08-08T05:36:10.464Z,3.80
2022-08-08T05:37:19.358Z,4.00
2022-08-08T05:38:30.655Z,3.40
2022-08-08T05:39:11.596Z,3.70
2022-08-08T05:40:10.456Z,3.60
2022-08-08T05:41:10.540Z,3.40
2022-08-08T05:42:10.466Z,3.40
2022-08-08T05:43:39.293Z,3.80
2022-08-08T05:44:11.351Z,3.40
2022-08-08T05:45:31.119Z,3.40
2022-08-08T05:46:11.380Z,3.60
2022-08-08T05:47:10.349Z,3.60
2022-08-08T05:48:10.400Z,3.60
2022-08-08T05:49:11.403Z,3.50
2022-08-08T05:50:11.280Z,3.90
2022-08-08T05:51:15.225Z,3.20
2022-08-08T05:52:11.282Z,3.40
2022-08-08T05:53:54.243Z,3.50
2022-08-08T05:54:27.364Z,3.50
2022-08-08T05:55:11.265Z,3.50
2022-08-08T05:56:15.029Z,3.50
2022-08-08T05:57:11.282Z,3.60
2022-08-08T05:58:17.333Z,3.60
2022-08-08T05:59:12.697Z,3.70
2022-08-08T06:00:22.862Z,3.60
2022-08-08T06:01:11.251Z,3.50
2022-08-08T06:02:10.426Z,3.40
2022-08-08T06:03:10.323Z,3.40
2022-08-08T06:04:13.854Z,3.50
2022-08-08T06:05:33.946Z,3.50
2022-08-08T06:06:12.193Z,3.70
2022-08-08T06:07:11.271Z,3.40
2022-08-08T06:08:28.531Z,3.40
2022-08-08T06:09:41.573Z,3.20
2022-08-08T06:10:11.181Z,3.40
2022-08-08T06:11:13.413Z,3.60
2022-08-08T06:12:14.435Z,3.20
2022-08-08T06:13:12.328Z,3.70
2022-08-08T06:14:12.835Z,3.50
2022-08-08T06:15:13.265Z,3.20
2022-08-08T06:16:11.199Z,3.40
2022-08-08T06:17:10.209Z,3.30
2022-08-08T06:18:21.150Z,3.00
2022-08-08T06:19:15.906Z,3.40
2022-08-08T06:20:12.207Z,3.30
2022-08-08T06:21:27.846Z,3.30
2022-08-08T06:23:11.138Z,3.30
2022-08-08T06:24:13.857Z,3.20
2022-08-08T06:25:11.298Z,3.50
2022-08-08T06:26:38.651Z,3.60
2022-08-08T06:27:11.091Z,3.40
2022-08-08T06:28:10.209Z,3.20
2022-08-08T06:29:10.616Z,3.50
2022-08-08T06:30:19.972Z,3.30
2022-08-08T06:31:12.351Z,3.30
2022-08-08T06:32:15.295Z,3.30
2022-08-08T06:33:13.154Z,3.60
2022-08-08T06:34:25.566Z,3.40
2022-08-08T06:36:00.441Z,3.20
2022-08-08T06:36:11.092Z,3.20
2022-08-08T06:37:25.002Z,3.30
2022-08-08T06:38:13.995Z,3.20
2022-08-08T06:39:09.999Z,3.40
2022-08-08T06:40:12.820Z,3.20
2022-08-08T06:41:13.177Z,3.30
2022-08-08T06:42:09.930Z,3.20
2022-08-08T06:43:10.053Z,2.90
2022-08-08T06:44:12.235Z,3.10
2022-08-08T06:45:10.906Z,3.00
2022-08-08T06:46:12.715Z,2.90
2022-08-08T06:47:09.933Z,2.80
2022-08-08T06:48:10.233Z,3.10
2022-08-08T06:49:10.935Z,2.90
2022-08-08T06:50:12.862Z,3.60
2022-08-08T06:51:10.936Z,2.90
2022-08-08T06:52:09.957Z,2.80
2022-08-08T06:53:17.229Z,2.80
2022-08-08T09:01:05.020Z,2.00
2022-08-08T09:01:47.076Z,2.00
2022-08-08T09:02:45.967Z,2.10
2022-08-08T09:03:47.435Z,2.00
2022-08-08T09:04:50.012Z,2.20
2022-08-08T09:05:54.255Z,2.20
2022-08-08T09:06:50.266Z,2.10
2022-08-08T09:07:52.137Z,2.10
2022-08-08T09:08:51.893Z,2.20
2022-08-08T09:09:48.127Z,1.90
2022-08-08T09:10:48.139Z,2.00
2022-08-08T09:11:47.466Z,2.20
2022-08-08T09:12:46.889Z,2.20
2022-08-08T09:13:45.950Z,2.00
2022-08-08T09:14:47.623Z,1.80
2022-08-08T09:15:45.850Z,2.00
2022-08-08T09:16:45.964Z,2.00
2022-08-08T09:17:55.676Z,2.30
2022-08-08T09:18:47.018Z,1.80
2022-08-08T09:21:58.132Z,1.90
2022-08-08T09:22:00.704Z,1.90
2022-08-08T09:22:01.963Z,2.00
2022-08-08T09:22:46.859Z,1.70
2022-08-08T09:23:45.878Z,1.80
2022-08-08T09:24:45.938Z,1.70
2022-08-08T09:26:00.670Z,1.90
2022-08-08T09:26:49.779Z,1.90
2022-08-08T09:27:57.240Z,1.80
2022-08-08T09:28:46.931Z,1.80
2022-08-08T09:29:52.331Z,1.80
2022-08-08T09:30:46.970Z,2.10
2022-08-08T09:31:56.508Z,1.80
2022-08-08T09:32:50.320Z,1.70
2022-08-08T09:34:06.309Z,1.80
2022-08-08T09:34:50.500Z,1.80
2022-08-08T09:35:49.813Z,1.90
2022-08-08T09:37:10.128Z,1.70
2022-08-08T09:38:01.027Z,1.80
2022-08-08T09:38:52.761Z,1.50
2022-08-08T09:39:46.829Z,1.60
2022-08-08T09:40:55.643Z,1.70
2022-08-08T09:42:14.896Z,2.00
2022-08-08T09:42:51.602Z,1.80
2022-08-08T09:44:06.760Z,1.80
2022-08-08T09:44:46.663Z,1.80
2022-08-08T09:46:02.293Z,1.80
2022-08-08T09:46:57.202Z,1.90
2022-08-08T09:48:10.226Z,1.50
2022-08-08T09:48:50.110Z,1.40
2022-08-08T09:49:49.943Z,1.50
2022-08-08T09:50:50.129Z,1.30
2022-08-08T09:52:06.938Z,1.70
2022-08-08T09:52:57.696Z,1.30
2022-08-08T09:54:01.160Z,1.70
2022-08-08T09:54:46.612Z,1.60
2022-08-08T09:56:03.040Z,1.50
2022-08-08T09:56:46.599Z,1.30
2022-08-08T09:57:46.288Z,1.60
2022-08-08T09:58:45.690Z,1.40
2022-08-08T10:00:02.114Z,1.60
2022-08-08T10:00:53.343Z,1.40
2022-08-08T10:01:59.938Z,1.60
2022-08-08T10:02:46.618Z,1.40
2022-08-08T10:03:45.616Z,1.50
2022-08-08T10:04:47.827Z,1.50
2022-08-08T10:05:46.771Z,1.50
2022-08-08T10:06:45.578Z,1.50
2022-08-08T10:07:46.573Z,1.60
2022-08-08T10:08:45.565Z,1.50
2022-08-08T10:09:59.525Z,1.60
2022-08-08T10:10:50.944Z,1.60
2022-08-08T10:12:28.181Z,1.50
2022-08-08T10:12:54.203Z,1.60
2022-08-08T10:13:46.484Z,1.80
2022-08-08T10:14:46.525Z,1.60
2022-08-08T10:16:00.852Z,1.70
2022-08-08T10:16:46.851Z,1.60
2022-08-08T10:18:05.573Z,1.60
2022-08-08T10:18:46.479Z,2.00
2022-08-08T10:19:57.338Z,1.80
2022-08-08T10:20:57.767Z,1.60
2022-08-08T10:21:51.126Z,1.70
2022-08-08T10:22:54.954Z,1.50
2022-08-08T10:23:56.115Z,1.50
2022-08-08T10:24:47.579Z,1.60
2022-08-08T10:25:57.135Z,1.70
2022-08-08T10:26:58.518Z,1.60
2022-08-08T10:27:46.372Z,1.60
2022-08-08T10:28:45.396Z,1.50
2022-08-08T10:29:58.367Z,1.40
2022-08-08T10:31:00.642Z,1.60
2022-08-08T10:31:47.368Z,1.50
2022-08-08T10:32:48.360Z,1.70
2022-08-08T10:34:19.025Z,1.60
2022-08-08T10:34:46.435Z,1.50
2022-08-08T10:36:09.721Z,1.70
2022-08-08T10:36:46.454Z,1.70
2022-08-08T10:37:45.314Z,1.70
2022-08-08T10:38:46.435Z,1.70
2022-08-08T10:39:53.890Z,1.70
2022-08-08T10:40:46.259Z,1.70
2022-08-08T10:41:59.130Z,1.80
2022-08-08T10:42:46.257Z,1.70
2022-08-08T10:43:45.356Z,1.50
2022-08-08T10:44:45.912Z,1.60
2022-08-08T10:45:56.674Z,1.60
2022-08-08T10:46:46.297Z,1.60
2022-08-08T10:47:48.480Z,1.50
2022-08-08T10:48:58.353Z,1.70
2022-08-08T10:50:01.740Z,1.60
2022-08-08T10:50:46.281Z,1.60
2022-08-08T10:51:50.921Z,1.40
2022-08-08T10:52:46.319Z,1.60
2022-08-08T10:53:57.247Z,1.50
2022-08-08T10:54:46.347Z,1.50
2022-08-08T10:55:46.583Z,1.60
2022-08-08T10:56:45.326Z,1.60
2022-08-08T10:57:50.265Z,1.70
2022-08-08T10:58:54.628Z,1.60
2022-08-08T10:59:46.330Z,1.50
2022-08-08T11:00:53.074Z,1.50
2022-08-08T11:01:46.350Z,1.50
2022-08-08T11:02:45.336Z,1.50
2022-08-08T11:04:01.589Z,1.50
2022-08-08T11:04:53.629Z,1.50
2022-08-08T11:05:46.198Z,1.50
2022-08-08T11:06:47.446Z,1.60
2022-08-08T11:08:31.218Z,1.50
2022-08-08T11:08:49.938Z,1.40
2022-08-08T11:09:47.228Z,1.70
2022-08-08T11:10:45.155Z,1.70
2022-08-08T11:12:05.286Z,1.90
2022-08-08T11:12:46.874Z,1.80
2022-08-08T11:13:52.129Z,1.50
2022-08-08T11:14:46.119Z,1.60
2022-08-08T11:15:58.715Z,1.60
2022-08-08T11:16:46.636Z,1.60
2022-08-08T11:17:58.525Z,1.50
2022-08-08T11:18:46.115Z,1.60
2022-08-08T11:19:46.601Z,1.50
2022-08-08T11:20:52.247Z,1.80
2022-08-08T11:21:54.283Z,1.70
2022-08-08T11:22:46.032Z,1.70
2022-08-08T11:23:45.160Z,1.50
2022-08-08T11:24:45.967Z,1.80
2022-08-08T11:25:52.498Z,2.00
2022-08-08T11:26:56.877Z,1.70
2022-08-08T11:27:46.668Z,1.50
2022-08-08T11:28:45.095Z,1.70
2022-08-08T11:29:58.228Z,1.70
2022-08-08T11:30:46.024Z,1.70
2022-08-08T11:31:48.136Z,1.70
2022-08-08T11:32:47.497Z,1.70
2022-08-08T11:33:52.558Z,1.70
2022-08-08T11:35:07.907Z,1.60
2022-08-08T11:35:47.070Z,1.50
2022-08-08T11:36:45.011Z,1.60
2022-08-08T11:38:38.960Z,1.50
2022-08-08T11:38:54.781Z,1.60
2022-08-08T11:39:57.868Z,1.70
2022-08-08T11:40:49.821Z,2.20
2022-08-08T11:41:47.025Z,1.60
2022-08-08T11:42:44.831Z,1.70
2022-08-08T11:43:44.977Z,1.90
2022-08-08T11:44:45.043Z,1.70
2022-08-08T11:46:09.234Z,1.70
2022-08-08T11:46:50.119Z,1.60
2022-08-08T11:48:02.981Z,1.60
2022-08-08T11:48:46.999Z,1.70
2022-08-08T11:49:45.930Z,1.70
2022-08-08T11:50:45.750Z,1.60
2022-08-08T11:51:50.054Z,1.70
2022-08-08T11:52:47.467Z,1.60
2022-08-08T11:53:58.955Z,1.80
2022-08-08T11:54:46.642Z,1.70
2022-08-08T11:55:45.810Z,3.10
2022-08-08T11:56:44.745Z,1.60
2022-08-08T11:57:45.845Z,1.60
2022-08-08T11:58:46.760Z,1.80
2022-08-08T12:00:00.377Z,1.70
2022-08-08T12:00:45.741Z,1.70
2022-08-08T12:01:44.939Z,1.70
2022-08-08T12:02:45.366Z,1.60
2022-08-08T12:03:44.894Z,1.60
2022-08-08T12:04:44.774Z,1.70
2022-08-08T12:05:44.899Z,1.70
2022-08-08T12:06:44.832Z,1.60
2022-08-08T12:07:44.852Z,1.70
2022-08-08T12:08:44.735Z,1.60
2022-08-08T12:10:00.262Z,1.50
2022-08-08T12:10:47.494Z,1.40
2022-08-08T12:11:45.859Z,1.90
2022-08-08T12:12:45.867Z,1.60
2022-08-08T12:14:03.387Z,1.60
2022-08-08T12:14:45.609Z,1.80
2022-08-08T12:15:47.141Z,1.60
2022-08-08T12:16:48.830Z,2.10
2022-08-08T12:17:51.211Z,1.70
2022-08-08T12:18:45.721Z,1.50
2022-08-08T12:19:50.853Z,1.40
2022-08-08T12:20:45.664Z,1.80
2022-08-08T12:21:59.800Z,1.40
2022-08-08T12:22:45.968Z,1.70
2022-08-08T12:23:59.350Z,1.90
2022-08-08T12:24:51.150Z,1.60
2022-08-08T12:25:52.751Z,1.60
2022-08-08T12:26:45.664Z,1.80
2022-08-08T12:27:45.742Z,1.60
2022-08-08T12:28:45.342Z,1.60
2022-08-08T12:29:45.520Z,2.00
2022-08-08T12:30:47.894Z,2.00
2022-08-08T12:31:53.541Z,1.60
2022-08-08T12:32:47.913Z,1.70
2022-08-08T12:34:02.444Z,1.50
2022-08-08T12:34:45.660Z,1.50
2022-08-08T12:35:52.771Z,1.70
2022-08-08T12:36:46.379Z,1.70
2022-08-08T12:38:01.386Z,1.50
2022-08-08T12:38:45.560Z,1.40
2022-08-08T12:40:00.364Z,1.50
2022-08-08T12:40:56.891Z,1.50
2022-08-08T12:41:57.570Z,1.40
2022-08-08T12:42:46.510Z,1.50
2022-08-08T12:43:59.723Z,1.60
2022-08-08T12:44:50.289Z,1.60
2022-08-08T12:46:00.014Z,1.60
2022-08-08T12:46:45.397Z,1.70
2022-08-08T12:48:04.712Z,1.60
2022-08-08T12:49:05.380Z,1.60
2022-08-08T12:49:46.412Z,1.50
2022-08-08T12:50:46.741Z,1.60
2022-08-08T12:51:53.735Z,1.60
2022-08-08T12:52:45.393Z,1.70
2022-08-08T12:53:44.506Z,1.70
2022-08-08T12:54:45.851Z,1.70
2022-08-08T12:56:05.653Z,1.90
2022-08-08T12:56:46.381Z,1.90
2022-08-08T12:57:56.220Z,1.60
2022-08-08T12:58:45.379Z,1.50
2022-08-08T12:59:45.170Z,1.60
2022-08-08T13:00:45.342Z,1.50
2022-08-08T13:01:45.446Z,1.80
2022-08-08T13:02:51.690Z,1.70
2022-08-08T13:03:45.365Z,1.50
2022-08-08T13:04:45.534Z,1.70
2022-08-08T13:06:03.707Z,1.60
2022-08-08T13:06:45.309Z,1.70
2022-08-08T13:08:03.982Z,1.70
2022-08-08T13:08:53.095Z,1.70
2022-08-08T13:10:04.408Z,1.50
2022-08-08T13:10:55.668Z,1.60
2022-08-08T13:12:26.818Z,1.70
2022-08-08T13:12:47.194Z,1.50
2022-08-08T13:13:45.245Z,1.70
2022-08-08T13:14:52.512Z,1.70
2022-08-08T13:15:45.257Z,1.80
2022-08-08T13:16:49.383Z,1.80
2022-08-08T13:18:08.093Z,1.80
2022-08-08T13:18:58.396Z,1.80
2022-08-08T13:19:50.342Z,1.60
2022-08-08T13:20:45.263Z,1.50
2022-08-08T13:21:53.466Z,1.40
2022-08-08T13:22:45.181Z,1.40
2022-08-08T13:23:46.921Z,1.50
2022-08-08T13:24:48.759Z,1.40
2022-08-08T13:25:51.051Z,1.40
2022-08-08T13:26:45.142Z,1.40
2022-08-08T13:27:44.234Z,1.60
2022-08-08T13:28:45.716Z,2.60
2022-08-08T13:29:44.114Z,2.20
2022-08-08T13:30:44.174Z,1.40
2022-08-08T13:31:44.226Z,1.80
2022-08-08T13:32:44.152Z,1.50
2022-08-08T13:33:44.092Z,1.60
2022-08-08T13:34:44.159Z,1.30
2022-08-08T13:35:50.007Z,1.30
2022-08-08T13:36:45.017Z,1.40
2022-08-08T13:38:05.671Z,1.70
2022-08-08T13:38:45.108Z,1.70
2022-08-08T13:39:44.250Z,1.70
2022-08-08T13:40:44.901Z,1.60
2022-08-08T13:41:52.768Z,1.60
2022-08-08T13:42:45.054Z,1.60
2022-08-08T13:43:44.212Z,1.60
2022-08-08T13:44:44.250Z,1.70
2022-08-08T13:45:47.448Z,1.60
2022-08-08T13:46:44.111Z,1.60
2022-08-08T13:47:55.465Z,1.60
2022-08-08T13:48:44.995Z,1.60
2022-08-08T13:50:38.820Z,1.70
2022-08-08T13:50:51.940Z,1.50
2022-08-08T13:51:50.468Z,1.50
2022-08-08T13:52:45.183Z,1.60
2022-08-08T13:53:59.814Z,1.60
2022-08-08T13:54:49.637Z,1.40
2022-08-08T13:55:44.036Z,1.70
2022-08-08T13:56:59.552Z,1.60
2022-08-08T13:58:06.783Z,1.50
2022-08-08T13:58:47.692Z,1.30
2022-08-08T13:59:48.254Z,1.30
2022-08-08T14:00:45.367Z,1.60
2022-08-08T14:01:52.717Z,1.60
2022-08-08T14:02:45.026Z,1.50
2022-08-08T14:03:52.790Z,1.70
2022-08-08T14:04:52.692Z,1.40
2022-08-08T14:06:00.740Z,1.30
2022-08-08T14:06:45.079Z,1.40
2022-08-08T14:07:44.013Z,1.50
2022-08-08T14:08:45.794Z,1.50
2022-08-08T14:10:04.659Z,1.30
2022-08-08T14:10:45.406Z,1.50
2022-08-08T14:11:44.001Z,1.20
2022-08-08T14:12:45.263Z,1.40
2022-08-08T14:14:00.416Z,1.20
2022-08-08T14:14:44.908Z,1.30
2022-08-08T14:15:46.100Z,1.40
2022-08-08T14:16:44.795Z,1.50
2022-08-08T14:17:58.889Z,1.30
2022-08-08T14:18:51.881Z,1.50
2022-08-08T14:19:57.106Z,1.60
2022-08-08T14:20:56.989Z,1.30
2022-08-08T14:21:52.118Z,1.50
2022-08-08T14:22:44.863Z,1.50
2022-08-08T14:24:06.554Z,1.30
2022-08-08T14:24:44.792Z,1.30
2022-08-08T14:25:44.948Z,1.30
2022-08-08T14:26:45.995Z,1.20
2022-08-08T14:27:43.866Z,1.30
2022-08-08T14:28:44.825Z,1.30
2022-08-08T14:29:44.168Z,1.30
2022-08-08T14:30:47.630Z,1.50
2022-08-08T14:32:09.187Z,1.20
2022-08-08T14:32:44.782Z,1.20
2022-08-08T14:33:43.800Z,1.30
2022-08-08T14:34:43.726Z,1.40
2022-08-08T14:35:43.932Z,1.30
2022-08-08T14:36:51.775Z,1.20
2022-08-08T14:37:59.990Z,1.50
2022-08-08T14:38:52.671Z,1.50
2022-08-08T14:39:48.547Z,1.30
2022-08-08T14:40:45.591Z,1.20
2022-08-08T14:41:53.114Z,1.30
2022-08-08T14:42:55.392Z,1.20
2022-08-08T14:44:10.353Z,1.50
2022-08-08T14:44:44.643Z,1.40
2022-08-08T14:46:02.051Z,1.20
2022-08-08T14:46:44.714Z,1.40
2022-08-08T14:47:43.700Z,1.20
2022-08-08T14:48:57.356Z,1.40
2022-08-08T14:50:06.535Z,1.10
2022-08-08T14:50:45.401Z,1.30
2022-08-08T14:51:52.332Z,1.30
2022-08-08T14:52:44.752Z,1.30
2022-08-08T14:53:56.246Z,1.20
2022-08-08T14:54:44.732Z,1.90
2022-08-08T14:55:43.909Z,1.40
2022-08-08T14:56:44.180Z,1.40
2022-08-08T14:58:03.025Z,1.40
2022-08-08T14:58:44.495Z,1.40
2022-08-08T14:59:50.880Z,1.20
2022-08-08T15:00:44.770Z,1.20
2022-08-08T15:01:43.677Z,1.20
2022-08-08T15:02:58.828Z,1.40
2022-08-08T15:03:44.892Z,1.20
2022-08-08T15:04:45.639Z,1.10
2022-08-08T15:05:52.404Z,1.40
2022-08-08T15:06:45.423Z,1.20
2022-08-08T15:07:43.560Z,1.30
2022-08-08T15:08:54.753Z,1.10
2022-08-08T15:09:44.579Z,1.20
2022-08-08T15:10:43.596Z,1.30
2022-08-08T15:11:52.863Z,1.30
2022-08-08T15:12:44.530Z,1.40
2022-08-08T15:14:01.535Z,1.40
2022-08-08T15:14:44.617Z,1.20
2022-08-08T15:16:02.874Z,1.20
2022-08-08T15:16:44.681Z,1.30
2022-08-08T15:17:44.592Z,1.00
2022-08-08T15:18:50.073Z,1.30
2022-08-08T15:19:44.390Z,1.40
2022-08-08T15:20:43.451Z,1.40
2022-08-08T15:21:43.421Z,1.20
2022-08-08T15:22:44.572Z,1.30
2022-08-08T15:23:43.394Z,1.20
2022-08-08T15:24:43.423Z,1.20